createdAt,value
2022-12-14T00:01:29.760Z,12.48
2022-12-14T00:03:56.999Z,15.20
2022-12-14T00:06:26.695Z,13.88
2022-12-14T00:08:57.546Z,12.63
2022-12-14T00:11:24.572Z,13.35
2022-12-14T00:13:53.778Z,13.50
2022-12-14T00:16:21.369Z,11.70
2022-12-14T00:18:53.090Z,16.30
2022-12-14T00:21:21.143Z,14.93
2022-12-14T00:23:50.149Z,12.95
2022-12-14T00:26:20.000Z,13.23
2022-12-14T00:28:47.809Z,14.98
2022-12-14T00:31:15.162Z,13.68
2022-12-14T00:33:42.301Z,13.50
2022-12-14T00:36:11.444Z,12.40
2022-12-14T00:38:38.621Z,13.45
2022-12-14T00:41:05.742Z,13.07
2022-12-14T00:43:32.350Z,10.93
2022-12-14T00:45:59.066Z,11.65
2022-12-14T00:50:54.665Z,10.57
2022-12-14T00:53:22.066Z,10.73
2022-12-14T00:55:49.903Z,9.82
2022-12-14T00:58:19.388Z,10.40
2022-12-14T01:00:47.237Z,12.07
2022-12-14T01:03:14.078Z,9.68
2022-12-14T01:05:41.215Z,9.65
2022-12-14T01:08:08.638Z,10.73
2022-12-14T01:10:39.555Z,11.15
2022-12-14T01:13:06.484Z,11.05
2022-12-14T01:15:35.645Z,11.70
2022-12-14T01:18:02.297Z,11.68
2022-12-14T01:20:28.959Z,10.60
2022-12-14T01:22:56.223Z,11.48
2022-12-14T01:25:22.910Z,11.32
2022-12-14T01:27:49.719Z,9.60
2022-12-14T01:32:45.361Z,9.75
2022-12-14T01:35:12.106Z,11.45
2022-12-14T01:40:05.929Z,8.82
2022-12-14T01:42:35.815Z,11.77
2022-12-14T01:45:02.933Z,9.88
2022-12-14T01:47:38.257Z,10.88
2022-12-14T01:50:27.938Z,10.75
2022-12-14T01:52:59.697Z,9.43
2022-12-14T01:55:35.312Z,10.40
2022-12-14T01:58:05.087Z,9.43
2022-12-14T02:00:31.810Z,9.48
2022-12-14T02:05:37.418Z,9.32
2022-12-14T02:08:06.286Z,9.30
2022-12-14T02:10:33.620Z,9.55
2022-12-14T02:13:29.760Z,8.23
2022-12-14T02:15:56.723Z,9.25
2022-12-14T02:21:15.473Z,9.20
2022-12-14T02:24:03.801Z,9.90
2022-12-14T02:26:54.971Z,9.55
2022-12-14T02:29:43.104Z,8.35
2022-12-14T02:32:26.959Z,8.20
2022-12-14T02:35:11.235Z,8.20
2022-12-14T02:37:38.110Z,8.15
2022-12-14T02:40:23.033Z,8.75
2022-12-14T02:43:13.684Z,9.70
2022-12-14T02:45:52.979Z,7.85
2022-12-14T02:48:26.621Z,7.03
2022-12-14T02:51:30.227Z,8.18
2022-12-14T02:54:04.259Z,9.25
2022-12-14T02:56:39.253Z,6.80
2022-12-14T02:59:08.644Z,8.07
2022-12-14T03:01:38.122Z,6.97
2022-12-14T03:04:06.065Z,8.52
2022-12-14T03:06:32.729Z,8.73
2022-12-14T03:09:08.611Z,7.95
2022-12-14T03:11:42.246Z,8.75
2022-12-14T03:14:17.009Z,8.15
2022-12-14T03:16:48.830Z,7.32
2022-12-14T03:19:42.380Z,7.70
2022-12-14T03:22:18.950Z,9.48
2022-12-14T03:24:54.788Z,7.32
2022-12-14T03:27:41.218Z,7.93
2022-12-14T03:30:18.398Z,7.45
2022-12-14T03:32:50.809Z,8.13
2022-12-14T03:35:31.830Z,7.90
2022-12-14T03:38:06.953Z,6.15
2022-12-14T03:40:59.929Z,7.03
2022-12-14T03:43:41.567Z,7.72
2022-12-14T03:46:55.746Z,6.88
2022-12-14T03:49:34.518Z,5.72
2022-12-14T03:52:21.358Z,6.55
2022-12-14T03:54:58.279Z,7.15
2022-12-14T03:57:49.657Z,5.88
2022-12-14T04:00:22.926Z,6.43
2022-12-14T04:03:24.558Z,7.40
2022-12-14T04:06:05.697Z,5.53
2022-12-14T04:08:44.199Z,5.97
2022-12-14T04:11:33.917Z,5.40
2022-12-14T04:14:54.338Z,5.97
2022-12-14T04:17:46.935Z,4.65
2022-12-14T04:20:19.973Z,5.32
2022-12-14T04:22:52.928Z,6.28
2022-12-14T04:25:44.014Z,5.95
2022-12-14T04:28:53.946Z,6.18
2022-12-14T04:31:23.964Z,6.70
2022-12-14T04:33:55.032Z,6.10
2022-12-14T04:36:28.259Z,6.72
2022-12-14T04:41:36.433Z,5.53
2022-12-14T04:44:19.892Z,4.35
2022-12-14T04:46:48.256Z,5.63
2022-12-14T04:49:26.400Z,6.20
2022-12-14T04:52:05.958Z,4.45
2022-12-14T04:57:22.154Z,5.65
2022-12-14T04:59:50.413Z,6.45
2022-12-14T05:02:39.815Z,7.07
2022-12-14T05:05:16.535Z,7.43
2022-12-14T05:08:17.534Z,6.47
2022-12-14T05:11:05.227Z,6.40
2022-12-14T05:13:49.008Z,6.07
2022-12-14T05:16:18.437Z,6.35
2022-12-14T05:18:45.623Z,5.88
2022-12-14T05:21:32.607Z,6.53
2022-12-14T05:24:01.560Z,5.68
2022-12-14T05:26:29.310Z,6.78
2022-12-14T05:28:56.766Z,5.75
2022-12-14T05:31:24.475Z,5.78
2022-12-14T05:33:51.154Z,6.20
2022-12-14T05:36:19.477Z,5.85
2022-12-14T05:38:46.563Z,5.65
2022-12-14T05:41:13.351Z,6.15
2022-12-14T05:46:07.163Z,5.63
2022-12-14T05:48:35.019Z,5.90
2022-12-14T05:51:12.168Z,8.35
2022-12-14T05:53:40.054Z,6.97
2022-12-14T05:56:09.743Z,6.70
2022-12-14T05:58:37.189Z,5.78
2022-12-14T06:01:13.953Z,5.70
2022-12-14T06:03:43.814Z,6.60
2022-12-14T06:06:12.063Z,6.50
2022-12-14T06:08:41.397Z,5.80
2022-12-14T06:11:14.549Z,6.32
2022-12-14T06:16:11.164Z,6.85
2022-12-14T06:18:43.707Z,6.32
2022-12-14T06:21:10.842Z,7.95
2022-12-14T06:23:37.508Z,6.90
2022-12-14T06:26:04.193Z,8.60
2022-12-14T06:28:30.819Z,8.00
2022-12-14T06:30:57.460Z,7.43
2022-12-14T06:33:24.316Z,7.20
2022-12-14T06:35:51.110Z,7.47
2022-12-14T06:38:17.956Z,7.25
2022-12-14T06:43:11.694Z,7.57
2022-12-14T06:45:38.713Z,8.05
2022-12-14T06:48:05.954Z,9.15
2022-12-14T06:50:32.701Z,8.90
2022-12-14T06:55:26.574Z,8.43
2022-12-14T06:57:54.368Z,8.88
2022-12-14T07:00:23.581Z,10.02
2022-12-14T07:02:51.088Z,8.63
2022-12-14T07:05:17.925Z,9.00
2022-12-14T07:07:44.655Z,8.95
2022-12-14T07:12:38.749Z,6.97
2022-12-14T07:15:05.981Z,9.45
2022-12-14T07:17:35.444Z,7.65
2022-12-14T07:20:02.119Z,7.88
2022-12-14T07:22:28.715Z,7.85
2022-12-14T07:24:55.273Z,7.70
2022-12-14T07:27:23.880Z,8.25
2022-12-14T07:29:50.531Z,7.95
2022-12-14T07:32:17.169Z,6.90
2022-12-14T07:34:43.928Z,7.97
2022-12-14T07:39:37.280Z,7.72
2022-12-14T07:44:30.477Z,7.65
2022-12-14T07:46:57.193Z,8.45
2022-12-14T07:51:50.543Z,7.05
2022-12-14T07:56:44.015Z,7.22
2022-12-14T07:59:15.646Z,9.07
2022-12-14T08:01:43.605Z,6.68
2022-12-14T08:04:19.098Z,7.15
2022-12-14T08:06:47.159Z,10.10
2022-12-14T08:09:15.526Z,9.10
2022-12-14T08:11:42.208Z,10.07
2022-12-14T08:14:13.537Z,11.52
2022-12-14T08:16:40.147Z,11.05
2022-12-14T08:19:06.896Z,11.77
2022-12-14T08:24:00.422Z,10.18
2022-12-14T08:26:34.992Z,9.65
2022-12-14T08:29:02.817Z,10.77
2022-12-14T08:31:29.851Z,9.85
2022-12-14T08:33:58.936Z,9.48
2022-12-14T08:36:29.484Z,7.43
2022-12-14T08:38:58.453Z,11.07
2022-12-14T08:41:26.549Z,10.05
2022-12-14T08:43:58.232Z,9.55
2022-12-14T08:46:27.029Z,9.60
2022-12-14T08:48:55.356Z,8.05
2022-12-14T08:51:23.287Z,8.32
2022-12-14T08:53:50.826Z,7.53
2022-12-14T08:56:20.048Z,7.57
2022-12-14T08:58:47.227Z,7.55
2022-12-14T09:01:20.879Z,9.02
2022-12-14T09:03:48.373Z,8.43
2022-12-14T09:06:24.207Z,7.47
2022-12-14T09:08:51.606Z,7.50
2022-12-14T09:11:19.680Z,8.30
2022-12-14T09:13:47.031Z,7.85
2022-12-14T09:16:19.943Z,7.35
2022-12-14T09:18:48.628Z,7.32
2022-12-14T09:21:15.607Z,8.35
2022-12-14T09:23:42.726Z,7.05
2022-12-14T09:26:13.488Z,8.27
2022-12-14T09:28:42.199Z,8.43
2022-12-14T09:31:12.368Z,7.32
2022-12-14T09:33:39.398Z,7.30
2022-12-14T09:36:12.446Z,7.53
2022-12-14T09:41:19.687Z,6.75
2022-12-14T09:44:18.164Z,6.88
2022-12-14T09:46:54.600Z,7.82
2022-12-14T09:49:28.832Z,8.07
2022-12-14T09:52:07.249Z,8.02
2022-12-14T09:54:38.392Z,8.50
2022-12-14T09:57:13.971Z,7.47
2022-12-14T09:59:40.683Z,7.55
2022-12-14T10:05:20.184Z,7.50
2022-12-14T10:07:53.338Z,7.30
2022-12-14T10:10:53.078Z,7.32
2022-12-14T10:13:35.098Z,6.00
2022-12-14T10:16:19.191Z,5.90
2022-12-14T10:19:00.944Z,6.40
2022-12-14T10:21:42.624Z,5.93
2022-12-14T10:24:15.867Z,6.80
2022-12-14T10:26:47.774Z,7.78
2022-12-14T10:29:33.249Z,7.93
2022-12-14T10:32:12.792Z,7.82
2022-12-14T10:34:41.475Z,9.07
2022-12-14T10:37:22.857Z,7.65
2022-12-14T10:40:15.759Z,8.15
2022-12-14T10:43:17.819Z,7.65
2022-12-14T10:45:49.450Z,8.20
2022-12-14T10:48:48.136Z,8.30
2022-12-14T10:51:33.692Z,8.70
2022-12-14T10:54:09.856Z,8.40
2022-12-14T10:56:41.763Z,8.60
2022-12-14T10:59:26.454Z,8.65
2022-12-14T11:02:03.965Z,10.50
2022-12-14T11:04:32.884Z,8.65
2022-12-14T11:07:02.359Z,9.23
2022-12-14T11:09:29.234Z,9.38
2022-12-14T11:12:03.592Z,9.48
2022-12-14T11:14:34.754Z,10.70
2022-12-14T11:17:01.685Z,10.10
2022-12-14T11:19:29.494Z,9.68
2022-12-14T11:22:11.117Z,9.57
2022-12-14T11:24:45.483Z,8.40
2022-12-14T11:27:14.722Z,7.80
2022-12-14T11:29:45.493Z,8.88
2022-12-14T11:32:19.020Z,8.27
2022-12-14T11:34:55.307Z,7.80
2022-12-14T11:37:27.933Z,7.55
2022-12-14T11:40:00.450Z,7.82
2022-12-14T11:42:28.268Z,9.50
2022-12-14T11:44:55.176Z,8.30
2022-12-14T11:47:26.530Z,8.00
2022-12-14T11:49:54.860Z,7.88
2022-12-14T11:52:25.046Z,9.30
2022-12-14T11:54:54.757Z,9.23
2022-12-14T11:57:32.938Z,7.65
2022-12-14T12:00:05.632Z,9.60
2022-12-14T12:02:37.690Z,8.50
2022-12-14T12:05:19.593Z,8.52
2022-12-14T12:07:49.192Z,8.93
2022-12-14T12:10:35.792Z,8.77
2022-12-14T12:13:07.169Z,9.05
2022-12-14T12:15:37.524Z,7.43
2022-12-14T12:18:29.547Z,8.70
2022-12-14T12:21:12.279Z,8.40
2022-12-14T12:23:57.626Z,8.00
2022-12-14T12:26:39.450Z,7.07
2022-12-14T12:29:34.805Z,6.40
2022-12-14T12:32:14.949Z,8.20
2022-12-14T12:35:12.363Z,7.18
2022-12-14T12:37:53.387Z,7.68
2022-12-14T12:40:30.692Z,7.47
2022-12-14T12:43:06.103Z,7.10
2022-12-14T12:45:51.405Z,7.07
2022-12-14T12:48:43.437Z,7.15
2022-12-14T12:53:43.951Z,6.13
2022-12-14T12:56:17.288Z,6.25
2022-12-14T12:58:52.128Z,7.05
2022-12-14T13:01:37.545Z,7.18
2022-12-14T13:04:10.433Z,7.60
2022-12-14T13:06:50.127Z,7.97
2022-12-14T13:09:26.240Z,6.63
2022-12-14T13:11:53.282Z,8.18
2022-12-14T13:14:42.975Z,6.90
2022-12-14T13:17:33.641Z,6.63
2022-12-14T13:20:04.028Z,7.28
2022-12-14T13:22:32.879Z,6.20
2022-12-14T13:25:06.132Z,7.28
2022-12-14T13:27:57.107Z,6.25
2022-12-14T13:30:39.089Z,6.25
2022-12-14T13:33:45.663Z,6.57
2022-12-14T13:37:01.215Z,6.82
2022-12-14T13:39:57.207Z,7.53
2022-12-14T13:42:31.630Z,5.85
2022-12-14T13:45:04.288Z,6.40
2022-12-14T13:47:44.592Z,6.13
2022-12-14T13:50:37.333Z,7.50
2022-12-14T13:53:17.935Z,6.97
2022-12-14T13:55:56.153Z,7.72
2022-12-14T13:58:36.880Z,7.07
2022-12-14T14:01:13.462Z,7.55
2022-12-14T14:03:41.541Z,8.00
2022-12-14T14:06:36.003Z,7.40
2022-12-14T14:09:24.569Z,7.03
2022-12-14T14:12:28.310Z,7.45
2022-12-14T14:15:22.658Z,7.35
2022-12-14T14:17:54.070Z,8.10
2022-12-14T14:20:40.706Z,7.28
2022-12-14T14:23:16.518Z,7.53
2022-12-14T14:25:48.928Z,7.13
2022-12-14T14:28:22.411Z,6.78
2022-12-14T14:30:52.997Z,7.25
2022-12-14T14:33:45.587Z,7.55
2022-12-14T14:36:33.325Z,7.75
2022-12-14T14:39:31.193Z,7.95
2022-12-14T14:41:54.615Z,7.20
2022-12-14T14:44:51.990Z,7.13
2022-12-14T14:47:35.729Z,7.25
2022-12-14T14:50:07.415Z,7.63
2022-12-14T14:52:59.090Z,8.07
2022-12-14T14:58:36.396Z,8.02
2022-12-14T15:01:09.762Z,7.13
2022-12-14T15:03:48.827Z,7.82
2022-12-14T15:06:19.889Z,7.82
2022-12-14T15:09:15.127Z,7.93
2022-12-14T15:11:53.414Z,8.20
2022-12-14T15:14:35.373Z,7.05
2022-12-14T15:17:21.398Z,6.75
2022-12-14T15:19:49.678Z,7.00
2022-12-14T15:22:19.784Z,6.68
2022-12-14T15:24:50.888Z,6.57
2022-12-14T15:27:28.157Z,8.00
2022-12-14T15:30:17.957Z,7.22
2022-12-14T15:32:53.063Z,7.32
2022-12-14T15:35:27.369Z,7.88
2022-12-14T15:38:01.044Z,8.32
2022-12-14T15:40:32.479Z,8.95
2022-12-14T15:43:02.319Z,8.45
2022-12-14T15:45:40.819Z,8.43
2022-12-14T15:48:25.386Z,7.70
2022-12-14T15:51:04.012Z,8.45
2022-12-14T15:53:49.964Z,8.25
2022-12-14T15:56:29.168Z,10.13
2022-12-14T15:59:23.375Z,7.15
2022-12-14T16:02:16.745Z,8.43
2022-12-14T16:04:44.708Z,11.32
2022-12-14T16:07:21.020Z,10.80
2022-12-14T16:09:51.403Z,10.65
2022-12-14T16:12:39.566Z,10.95
2022-12-14T16:15:24.181Z,9.45
2022-12-14T16:17:59.283Z,10.20
2022-12-14T16:20:31.832Z,9.98
2022-12-14T16:23:06.799Z,11.55
2022-12-14T16:25:37.289Z,10.52
2022-12-14T16:28:28.794Z,12.35
2022-12-14T16:30:57.432Z,11.02
2022-12-14T16:33:24.987Z,18.25
2022-12-14T16:36:04.473Z,15.93
2022-12-14T16:38:32.845Z,11.02
2022-12-14T16:41:02.127Z,11.88
2022-12-14T16:43:35.297Z,12.40
2022-12-14T16:46:05.229Z,10.73
2022-12-14T16:48:35.178Z,13.65
2022-12-14T16:51:28.636Z,11.95
2022-12-14T16:56:48.153Z,11.07
2022-12-14T16:59:26.965Z,12.20
2022-12-14T17:01:54.060Z,14.55
2022-12-14T17:04:21.249Z,15.50
2022-12-14T17:06:51.021Z,15.63
2022-12-14T17:09:20.962Z,16.33
2022-12-14T17:11:49.075Z,16.88
2022-12-14T17:14:17.628Z,15.15
2022-12-14T17:16:46.735Z,13.23
2022-12-14T17:19:26.617Z,14.15
2022-12-14T17:21:53.221Z,15.15
2022-12-14T17:24:22.070Z,12.68
2022-12-14T17:26:50.402Z,10.45
2022-12-14T17:29:28.682Z,11.85
2022-12-14T17:31:57.691Z,12.90
2022-12-14T17:34:24.935Z,12.10
2022-12-14T17:36:51.628Z,12.88
2022-12-14T17:39:18.225Z,12.35
2022-12-14T17:41:46.466Z,12.60
2022-12-14T17:44:15.242Z,11.77
2022-12-14T17:46:43.723Z,11.43
2022-12-14T17:49:12.837Z,12.50
2022-12-14T17:51:42.061Z,11.52
2022-12-14T17:54:17.530Z,12.60
2022-12-14T17:56:45.622Z,13.23
2022-12-14T17:59:13.165Z,13.27
2022-12-14T18:01:41.169Z,15.77
2022-12-14T18:04:08.572Z,13.77
2022-12-14T18:06:35.374Z,14.05
2022-12-14T18:11:28.824Z,13.50
2022-12-14T18:13:55.698Z,13.45
2022-12-14T18:16:24.241Z,13.57
2022-12-14T18:18:53.995Z,14.38
2022-12-14T18:21:28.646Z,13.77
2022-12-14T18:23:56.553Z,14.05
2022-12-14T18:26:23.994Z,12.70
2022-12-14T18:28:53.617Z,14.27
2022-12-14T18:31:23.347Z,12.80
2022-12-14T18:33:50.557Z,15.35
2022-12-14T18:36:19.761Z,16.42
2022-12-14T18:38:49.532Z,16.83
2022-12-14T18:41:19.157Z,13.32
2022-12-14T18:43:46.218Z,12.90
2022-12-14T18:46:12.935Z,12.23
2022-12-14T18:48:40.506Z,14.48
2022-12-14T18:51:10.762Z,14.43
2022-12-14T18:53:37.793Z,13.48
2022-12-14T18:56:08.674Z,15.95
2022-12-14T18:58:35.698Z,16.50
2022-12-14T19:01:02.894Z,15.55
2022-12-14T19:03:32.298Z,12.48
2022-12-14T19:06:42.337Z,14.18
2022-12-14T19:08:56.922Z,12.57
2022-12-14T19:11:31.627Z,15.48
2022-12-14T19:13:59.778Z,12.98
2022-12-14T19:16:26.628Z,13.55
2022-12-14T19:21:20.334Z,14.38
2022-12-14T19:23:47.108Z,14.02
2022-12-14T19:26:13.763Z,14.95
2022-12-14T19:28:40.441Z,14.02
2022-12-14T19:31:10.368Z,16.73
2022-12-14T19:33:37.194Z,14.77
2022-12-14T19:36:07.810Z,14.27
2022-12-14T19:38:35.261Z,13.38
2022-12-14T19:41:05.913Z,13.98
2022-12-14T19:43:33.176Z,11.98
2022-12-14T19:46:00.254Z,11.93
2022-12-14T19:48:26.923Z,13.82
2022-12-14T19:50:53.651Z,12.95
2022-12-14T19:53:23.709Z,14.20
2022-12-14T19:55:54.008Z,12.00
2022-12-14T19:58:23.077Z,12.73
2022-12-14T20:00:50.281Z,10.82
2022-12-14T20:03:17.151Z,10.52
2022-12-14T20:05:56.200Z,10.82
2022-12-14T20:08:23.286Z,12.30
2022-12-14T20:10:52.425Z,13.68
2022-12-14T20:13:20.011Z,10.77
2022-12-14T20:15:54.768Z,12.25
2022-12-14T20:18:22.660Z,10.95
2022-12-14T20:20:50.179Z,11.23
2022-12-14T20:23:18.389Z,10.90
2022-12-14T20:25:45.353Z,12.20
2022-12-14T20:30:44.010Z,12.13
2022-12-14T20:33:10.655Z,10.65
2022-12-14T20:35:37.400Z,8.95
2022-12-14T20:38:04.021Z,12.25
2022-12-14T20:40:38.014Z,10.95
2022-12-14T20:43:05.322Z,11.05
2022-12-14T20:45:31.941Z,10.00
2022-12-14T20:47:58.623Z,9.85
2022-12-14T20:50:25.231Z,10.38
2022-12-14T20:52:51.805Z,11.10
2022-12-14T20:55:18.401Z,10.13
2022-12-14T20:57:44.985Z,10.73
2022-12-14T21:00:12.413Z,10.40
2022-12-14T21:02:39.368Z,10.88
2022-12-14T21:05:06.668Z,9.40
2022-12-14T21:07:33.482Z,9.07
2022-12-14T21:10:00.095Z,12.55
2022-12-14T21:12:26.871Z,14.00
2022-12-14T21:14:55.573Z,11.10
2022-12-14T21:17:24.986Z,11.25
2022-12-14T21:19:52.180Z,11.85
2022-12-14T21:22:21.585Z,12.38
2022-12-14T21:25:05.595Z,11.38
2022-12-14T21:27:34.725Z,11.35
2022-12-14T21:30:01.918Z,9.23
2022-12-14T21:32:28.907Z,11.23
2022-12-14T21:34:55.737Z,9.95
2022-12-14T21:37:22.897Z,10.10
2022-12-14T21:39:54.926Z,9.23
2022-12-14T21:42:25.852Z,7.90
2022-12-14T21:44:53.984Z,9.40
2022-12-14T21:47:24.076Z,10.48
2022-12-14T21:49:50.780Z,8.80
2022-12-14T21:54:46.290Z,9.38
2022-12-14T21:59:59.191Z,7.45
2022-12-14T22:04:56.204Z,9.98
2022-12-14T22:07:30.829Z,8.02
2022-12-14T22:09:57.913Z,8.20
2022-12-14T22:12:24.596Z,11.10
2022-12-14T22:14:51.404Z,10.85
2022-12-14T22:17:18.266Z,10.30
2022-12-14T22:22:16.296Z,10.57
2022-12-14T22:24:43.879Z,9.35
2022-12-14T22:27:12.074Z,11.27
2022-12-14T22:29:41.660Z,12.45
2022-12-14T22:32:10.677Z,10.80
2022-12-14T22:34:37.376Z,10.23
2022-12-14T22:37:04.076Z,10.13
2022-12-14T22:39:30.880Z,9.80
2022-12-14T22:41:57.512Z,11.80
2022-12-14T22:44:24.142Z,10.85
2022-12-14T22:46:50.830Z,9.68
2022-12-14T22:49:19.265Z,10.57
2022-12-14T22:51:46.419Z,10.65
2022-12-14T22:54:21.734Z,12.95
2022-12-14T22:56:59.154Z,10.25
2022-12-14T22:59:34.089Z,11.60
2022-12-14T23:02:00.843Z,12.68
2022-12-14T23:06:55.002Z,9.85
2022-12-14T23:09:40.565Z,12.32
2022-12-14T23:12:25.966Z,12.20
2022-12-14T23:15:11.323Z,10.95
2022-12-14T23:17:56.889Z,10.13
2022-12-14T23:20:42.293Z,11.25
2022-12-14T23:23:28.059Z,10.43
2022-12-14T23:28:59.267Z,7.65
2022-12-14T23:34:29.672Z,8.73
2022-12-14T23:37:20.043Z,10.27
2022-12-14T23:40:06.315Z,12.20
2022-12-14T23:42:51.835Z,10.15
2022-12-14T23:45:37.146Z,8.80
2022-12-14T23:48:22.652Z,10.00
2022-12-14T23:51:07.955Z,10.20
2022-12-14T23:53:53.401Z,11.88
2022-12-14T23:56:38.866Z,12.90
2022-12-14T23:59:29.728Z,13.02
